Saint Vassilios — V7YE3 — position and weather

sailwx.info

Track history (hours):
 
Tides and Currents Weather Stations Pressure Air Temp Water Temp Dewpoint Dewpoint Depression Visibility Wind Speed Wind Dir Waves Ship Positions

Saint Vassilios

Last reported at 2018-Aug-02 14:19 UTC. Time now 2018-Aug-14 23:43 UTC.
Position N 27°25' W 014°22'.
Warning: this ship's position is 12 days out of date.

Length 181 m; draft 9.9 m.

Type: Ship. MMSI: 538004639.

Date/timePositionNaut miles runAvg speedWind from/ knotsBaromVisibWave heightAir tempDewpointWater temp
2018-Aug-02 14:19N 27°25' W 014°22'411.4
2018-Aug-02 14:00N 27°28' W 014°19'611.2
2018-Aug-02 13:28N 27°32' W 014°15'511.4
2018-Aug-02 13:01N 27°36' W 014°11'612.0
2018-Aug-02 12:31N 27°40' W 014°06'611.8
2018-Aug-02 12:00N 27°45' W 014°02'611.7
2018-Aug-02 11:31N 27°49' W 013°57'611.8
2018-Aug-02 11:01N 27°53' W 013°53'612.0
2018-Aug-02 10:30N 27°57' W 013°48'713.2
2018-Aug-02 09:57N 28°03' W 013°42'613.6
2018-Aug-02 09:28N 28°08' W 013°38'612.7
2018-Aug-02 08:59N 28°12' W 013°33'612.2
2018-Aug-02 08:30N 28°17' W 013°29'612.1
2018-Aug-02 07:59N 28°22' W 013°24'911.9
2018-Aug-02 07:12N 28°29' W 013°17'511.9
2018-Aug-02 06:47N 28°33' W 013°14'411.8
2018-Aug-02 06:30N 28°35' W 013°11'611.7
2018-Aug-02 06:00N 28°40' W 013°07'2412.1
2018-Aug-02 04:02N 28°58' W 012°50'211.7
2018-Aug-02 03:54N 28°59' W 012°48'911.8
2018-Aug-02 03:09N 29°06' W 012°42'512.0
2018-Aug-02 02:45N 29°10' W 012°39'412.1
2018-Aug-02 02:24N 29°13' W 012°35'612.1
2018-Aug-02 01:55N 29°17' W 012°31'  
2018-Jul-29 16:27N 36°37' W 000°32'611.9
2018-Jul-29 15:58N 36°38' W 000°25'611.7
2018-Jul-29 15:30N 36°39' W 000°19'611.6
2018-Jul-29 15:00N 36°40' W 000°11'1211.9
2018-Jul-29 14:00N 36°42' E 000°03'611.7
2018-Jul-29 13:30N 36°42' E 000°10'611.6
2018-Jul-29 13:00N 36°43' E 000°17'611.5
2018-Jul-29 12:30N 36°44' E 000°25'611.3
2018-Jul-29 12:00N 36°45' E 000°32'611.2
2018-Jul-29 11:30N 36°46' E 000°38'611.0
2018-Jul-29 10:59N 36°47' E 000°45'811.0
2018-Jul-29 10:13N 36°48' E 000°56'211.1
2018-Jul-29 10:00N 36°48' E 000°59'1011.3
2018-Jul-29 09:05N 36°50' E 001°12'110.9
2018-Jul-29 09:00N 36°50' E 001°13'611.2
2018-Jul-29 08:29N 36°51' E 001°20'612.0
2018-Jul-29 07:59N 36°51' E 001°27'612.7
2018-Jul-29 07:30N 36°52' E 001°35'612.2
2018-Jul-29 07:00N 36°53' E 001°42'612.1
2018-Jul-29 06:30N 36°54' E 001°50'611.9
2018-Jul-29 06:00N 36°55' E 001°57'611.9
2018-Jul-29 05:30N 36°56' E 002°05'611.9
2018-Jul-29 05:00N 36°57' E 002°12'611.7
2018-Jul-29 04:30N 36°58' E 002°19'711.8
2018-Jul-29 03:56N 36°59' E 002°28'611.8
2018-Jul-29 03:28N 36°59' E 002°34'612.0
2018-Jul-29 03:00N 37°00' E 002°41'612.2
2018-Jul-29 02:30N 37°01' E 002°49'612.2
2018-Jul-29 02:00N 37°02' E 002°56'612.4
2018-Jul-29 01:29N 37°03' E 003°04'812.4
2018-Jul-29 00:51N 37°04' E 003°14'412.6
2018-Jul-29 00:30N 37°05' E 003°20'612.7
2018-Jul-29 00:00N 37°06' E 003°27'812.7
2018-Jul-28 23:23N 37°07' E 003°37'512.7
2018-Jul-28 23:00N 37°07' E 003°43'712.8
2018-Jul-28 22:29N 37°08' E 003°51'612.7
2018-Jul-28 22:00N 37°09' E 003°59'612.6
2018-Jul-28 21:30N 37°10' E 004°07'612.3
2018-Jul-28 21:00N 37°11' E 004°14'912.2
2018-Jul-28 20:17N 37°12' E 004°25'412.2
2018-Jul-28 20:00N 37°13' E 004°30'712.2
2018-Jul-28 19:25N 37°14' E 004°38'512.6
2018-Jul-28 19:00N 37°14' E 004°45'812.5
2018-Jul-28 18:21N 37°16' E 004°55'512.5
2018-Jul-28 17:59N 37°16' E 005°01'612.4
2018-Jul-28 17:30N 37°17' E 005°08'712.2
2018-Jul-28 16:56N 37°18' E 005°17'511.8
2018-Jul-28 16:30N 37°19' E 005°23'611.9
2018-Jul-28 16:00N 37°20' E 005°30'612.1
2018-Jul-28 15:30N 37°21' E 005°38'712.1
2018-Jul-28 14:53N 37°22' E 005°47'512.2
2018-Jul-28 14:30N 37°22' E 005°53'612.2
2018-Jul-28 14:00N 37°23' E 006°01'10112.2
2018-Jul-28 05:42N 37°38' E 008°07'211.8
2018-Jul-28 05:30N 37°38' E 008°10'611.8
2018-Jul-28 05:00N 37°39' E 008°18'  
2018-Jul-25 11:37N 37°10' E 023°45'112.2
2018-Jul-25 11:30N 37°11' E 023°46'  
Track history (hours):
 
Tides and Currents Weather Stations Pressure Air Temp Water Temp Dewpoint Dewpoint Depression Visibility Wind Speed Wind Dir Waves Ship Positions

Saint Vassilios

Last reported at 2018-Aug-02 14:19 UTC. Time now 2018-Aug-14 23:43 UTC.
Position N 27°25' W 014°22'.
Warning: this ship's position is 12 days out of date.

Length 181 m; draft 9.9 m.

Type: Ship. MMSI: 538004639.

Date/timePositionNaut miles runAvg speedWind from/ knotsBaromVisibWave heightAir tempDewpointWater temp
2018-Aug-02 14:19N 27°25' W 014°22'411.4
2018-Aug-02 14:00N 27°28' W 014°19'611.2
2018-Aug-02 13:28N 27°32' W 014°15'511.4
2018-Aug-02 13:01N 27°36' W 014°11'612.0
2018-Aug-02 12:31N 27°40' W 014°06'611.8
2018-Aug-02 12:00N 27°45' W 014°02'611.7
2018-Aug-02 11:31N 27°49' W 013°57'611.8
2018-Aug-02 11:01N 27°53' W 013°53'612.0
2018-Aug-02 10:30N 27°57' W 013°48'713.2
2018-Aug-02 09:57N 28°03' W 013°42'613.6
2018-Aug-02 09:28N 28°08' W 013°38'612.7
2018-Aug-02 08:59N 28°12' W 013°33'612.2
2018-Aug-02 08:30N 28°17' W 013°29'612.1
2018-Aug-02 07:59N 28°22' W 013°24'911.9
2018-Aug-02 07:12N 28°29' W 013°17'511.9
2018-Aug-02 06:47N 28°33' W 013°14'411.8
2018-Aug-02 06:30N 28°35' W 013°11'611.7
2018-Aug-02 06:00N 28°40' W 013°07'2412.1
2018-Aug-02 04:02N 28°58' W 012°50'211.7
2018-Aug-02 03:54N 28°59' W 012°48'911.8
2018-Aug-02 03:09N 29°06' W 012°42'512.0
2018-Aug-02 02:45N 29°10' W 012°39'412.1
2018-Aug-02 02:24N 29°13' W 012°35'612.1
2018-Aug-02 01:55N 29°17' W 012°31'  
2018-Jul-29 16:27N 36°37' W 000°32'611.9
2018-Jul-29 15:58N 36°38' W 000°25'611.7
2018-Jul-29 15:30N 36°39' W 000°19'611.6
2018-Jul-29 15:00N 36°40' W 000°11'1211.9
2018-Jul-29 14:00N 36°42' E 000°03'611.7
2018-Jul-29 13:30N 36°42' E 000°10'611.6
2018-Jul-29 13:00N 36°43' E 000°17'611.5
2018-Jul-29 12:30N 36°44' E 000°25'611.3
2018-Jul-29 12:00N 36°45' E 000°32'611.2
2018-Jul-29 11:30N 36°46' E 000°38'611.0
2018-Jul-29 10:59N 36°47' E 000°45'811.0
2018-Jul-29 10:13N 36°48' E 000°56'211.1
2018-Jul-29 10:00N 36°48' E 000°59'1011.3
2018-Jul-29 09:05N 36°50' E 001°12'110.9
2018-Jul-29 09:00N 36°50' E 001°13'611.2
2018-Jul-29 08:29N 36°51' E 001°20'612.0
2018-Jul-29 07:59N 36°51' E 001°27'612.7
2018-Jul-29 07:30N 36°52' E 001°35'612.2
2018-Jul-29 07:00N 36°53' E 001°42'612.1
2018-Jul-29 06:30N 36°54' E 001°50'611.9
2018-Jul-29 06:00N 36°55' E 001°57'611.9
2018-Jul-29 05:30N 36°56' E 002°05'611.9
2018-Jul-29 05:00N 36°57' E 002°12'611.7
2018-Jul-29 04:30N 36°58' E 002°19'711.8
2018-Jul-29 03:56N 36°59' E 002°28'611.8
2018-Jul-29 03:28N 36°59' E 002°34'612.0
2018-Jul-29 03:00N 37°00' E 002°41'612.2
2018-Jul-29 02:30N 37°01' E 002°49'612.2
2018-Jul-29 02:00N 37°02' E 002°56'612.4
2018-Jul-29 01:29N 37°03' E 003°04'812.4
2018-Jul-29 00:51N 37°04' E 003°14'412.6
2018-Jul-29 00:30N 37°05' E 003°20'612.7
2018-Jul-29 00:00N 37°06' E 003°27'812.7
2018-Jul-28 23:23N 37°07' E 003°37'512.7
2018-Jul-28 23:00N 37°07' E 003°43'712.8
2018-Jul-28 22:29N 37°08' E 003°51'612.7
2018-Jul-28 22:00N 37°09' E 003°59'612.6
2018-Jul-28 21:30N 37°10' E 004°07'612.3
2018-Jul-28 21:00N 37°11' E 004°14'912.2
2018-Jul-28 20:17N 37°12' E 004°25'412.2
2018-Jul-28 20:00N 37°13' E 004°30'712.2
2018-Jul-28 19:25N 37°14' E 004°38'512.6
2018-Jul-28 19:00N 37°14' E 004°45'812.5
2018-Jul-28 18:21N 37°16' E 004°55'512.5
2018-Jul-28 17:59N 37°16' E 005°01'612.4
2018-Jul-28 17:30N 37°17' E 005°08'712.2
2018-Jul-28 16:56N 37°18' E 005°17'511.8
2018-Jul-28 16:30N 37°19' E 005°23'611.9
2018-Jul-28 16:00N 37°20' E 005°30'612.1
2018-Jul-28 15:30N 37°21' E 005°38'712.1
2018-Jul-28 14:53N 37°22' E 005°47'512.2
2018-Jul-28 14:30N 37°22' E 005°53'612.2
2018-Jul-28 14:00N 37°23' E 006°01'10112.2
2018-Jul-28 05:42N 37°38' E 008°07'211.8
2018-Jul-28 05:30N 37°38' E 008°10'611.8
2018-Jul-28 05:00N 37°39' E 008°18'  
2018-Jul-25 11:37N 37°10' E 023°45'112.2
2018-Jul-25 11:30N 37°11' E 023°46'  

Dump ship's entire track history